Portsmouth, OH

6:16 PM EDT on September 20, 2014 (GMT -0400)
Thomas Hollow | Change Station
CLOSE
Current Station
Personal Weather Station
Location: Lucasville, OH
Elevation: 719 ft
Nearby Weather Stations

Elev 719 ft 38.89 °N, 82.97 °W | Updated 14 minutes ago

Partly Cloudy
Partly Cloudy
82.0 °F
Feels Like 80 °F
N
3.1
Wind Variable Wind from SW
Gusts 5.4 mph

Today
High -- | Low -- °F
--% Chance of Precip.
Yesterday
High -- | Low -- °F
Precip. -- in
7:17 AM 7:31 PM
Waning Crescent, 10% visible
Pressure 29.98 in
Visibility 10.0 miles
Clouds Clear
Heat Index 80 °F
Dew Point 24 °F
Humidity 12%
Rainfall 0.00 in
Snow Depth Not available.
UV 1 out of 12
Pollen 5.30 out of 12
Air Quality Not available.
Flu Activity Not available.
METAR KHTS 202151Z 19006KT 10SM CLR 26/18 A3000 RMK AO2 SLP151 T02560183 $

More Conditions Fewer Conditions

Pressure 29.98 in
Visibility 10.0 miles
Clouds Clear
Heat Index 80 °F
Dew Point 24 °F
Humidity 12%
Rainfall 0.00 in
Snow Depth Not available.
UV 1 out of 12
Pollen 5.30 out of 12
Air Quality Not available.
Flu Activity Not available.
METAR KHTS 202151Z 19006KT 10SM CLR 26/18 A3000 RMK AO2 SLP151 T02560183 $

More Conditions Fewer Conditions

10-Day Weather Forecast

Almanac

Astronomy

Sep. 20, 2014 Rise Set
Actual Time 7:17 AM EDT 7:31 PM EDT
Civil Twilight 6:51 AM EDT 7:58 PM EDT
Nautical Twilight 6:19 AM EDT 8:29 PM EDT
Astronomical Twilight 5:48 AM EDT 9:01 PM EDT
Moon 3:57 AM EDT 5:33 PM EDT
Length of Visible Light 13h 07m
Length of Day
12h 14m
Tomorrow will be 2m 30s shorter.
Waning Crescent, 10% of the Moon is Illuminated
Today
Waning Crescent
Sep 24
New
Oct 1
First Quarter
Oct 8
Full
Oct 15
Last Quarter

Today's Extremes

State Highs State Lows

Community

WunderPhotos

Upload Photos

1,754,968 photos uploaded!

WunderBlogs® & News

Nearby

Snow Depth

Station Depth Elevation
No new snow has been reported.

Earthquake Activity

City Distance Mag. Time & Date
No recent earthquake activity has been reported nearby.
Minimum magnitude displayed is 2.5.

Coastal Water Temperatures

Place Temperature
No Stations Reporting

Nearby Weather Stations